Time;durP1;ratioP1;P1;durP2;ratioP2;P2;SDS_P1;SDS_P2;PMS_P1;PMS_P2;Temp;Humidity;BMP_temperature;BMP_pressure;BME280_temperature;BME280_humidity;BME280_pressure;Samples;Min_cycle;Max_cycle;Signal;HPM_P1;HPM_P2
2023/05/15 00:01:05;;;;;;;;;;;12.10;99.90;;;;;;4896620;29;19954;-63
2023/05/15 00:03:31;;;;;;;;;;;12.00;99.90;;;;;;4895935;29;19943;-64
2023/05/15 00:05:57;;;;;;;;;;;12.00;99.90;;;;;;4897121;29;19928;-67
2023/05/15 00:08:22;;;;;;;;;;;12.10;99.90;;;;;;4895753;29;19927;-64
2023/05/15 00:10:48;;;;;;;;;;;12.00;99.90;;;;;;4897057;29;19931;-64
2023/05/15 00:13:15;;;;;;;;;;;12.00;99.90;;;;;;4911625;29;19986;-64
2023/05/15 00:15:41;;;;;;;;;;;12.00;99.90;;;;;;4896146;29;20371;-65
2023/05/15 00:18:06;;;;;;;;;;;12.00;99.90;;;;;;4895648;29;19935;-65
2023/05/15 00:20:32;;;;;;;;;;;12.00;99.90;;;;;;4895753;29;19955;-63
2023/05/15 00:22:57;;;;;;;;;;;12.00;99.90;;;;;;4895856;29;19928;-67
2023/05/15 00:25:23;;;;;;;;;;;12.00;99.90;;;;;;4880389;29;19928;-64
2023/05/15 00:27:48;;;;;;;;;;;11.90;99.90;;;;;;4880114;29;19999;-64
2023/05/15 00:30:14;;;;;;;;;;;12.00;99.90;;;;;;4895362;29;19950;-65
2023/05/15 00:32:40;;;;;;;;;;;12.00;99.90;;;;;;4911922;29;19983;-63
2023/05/15 00:35:06;;;;;;;;;;;12.10;99.90;;;;;;4911069;29;20018;-63
2023/05/15 00:37:31;;;;;;;;;;;12.00;99.90;;;;;;4895571;29;19983;-63
2023/05/15 00:39:57;;;;;;;;;;;12.10;99.90;;;;;;4911473;29;19970;-63
2023/05/15 00:42:23;;;;;;;;;;;12.10;99.90;;;;;;4896422;29;19931;-64
2023/05/15 00:44:49;;;;;;;;;;;12.00;99.90;;;;;;4880419;29;19950;-63
2023/05/15 00:47:15;;;;;;;;;;;12.10;99.90;;;;;;4900130;29;20025;-64
2023/05/15 00:49:41;;;;;;;;;;;12.10;99.90;;;;;;4900352;29;19985;-63
2023/05/15 00:52:07;;;;;;;;;;;12.10;99.90;;;;;;4898860;29;19934;-65
2023/05/15 00:54:33;;;;;;;;;;;12.10;99.90;;;;;;4900546;29;19932;-64
2023/05/15 00:56:59;;;;;;;;;;;12.00;99.90;;;;;;4900368;29;19927;-64
2023/05/15 00:59:26;;;;;;;;;;;11.90;99.90;;;;;;4899866;29;20259;-64
2023/05/15 01:01:52;;;;;;;;;;;11.80;99.90;;;;;;4900188;29;19982;-63
2023/05/15 01:04:18;;;;;;;;;;;11.70;99.90;;;;;;4898895;29;19928;-63
2023/05/15 01:06:43;;;;;;;;;;;11.60;99.90;;;;;;4900138;29;19933;-64
2023/05/15 01:09:09;;;;;;;;;;;11.70;99.90;;;;;;4898156;29;19950;-64
2023/05/15 01:11:36;;;;;;;;;;;11.70;99.90;;;;;;4900277;29;19927;-64
2023/05/15 01:14:04;;;;;;;;;;;11.70;99.90;;;;;;4899211;29;19931;-64
2023/05/15 01:16:30;;;;;;;;;;;11.60;99.90;;;;;;4900053;29;19927;-63
2023/05/15 01:18:55;;;;;;;;;;;11.60;99.90;;;;;;4900322;29;19975;-64
2023/05/15 01:21:24;;;;;;;;;;;11.60;99.90;;;;;;4897989;29;19928;-63
2023/05/15 01:24:02;;;;;;;;;;;11.60;99.90;;;;;;4899198;29;20297;-63
2023/05/15 01:26:36;;;;;;;;;;;11.70;99.90;;;;;;4899692;29;19971;-64
2023/05/15 01:29:13;;;;;;;;;;;11.70;99.90;;;;;;4899053;29;20435;-64
2023/05/15 01:31:40;;;;;;;;;;;11.70;99.90;;;;;;4899730;29;20417;-64
2023/05/15 01:34:08;;;;;;;;;;;11.70;99.90;;;;;;4898229;29;20293;-67
2023/05/15 01:36:41;;;;;;;;;;;11.60;99.90;;;;;;4883089;29;19994;-65
2023/05/15 01:39:07;;;;;;;;;;;11.60;99.90;;;;;;4898611;29;19934;-67
2023/05/15 01:41:36;;;;;;;;;;;11.50;99.90;;;;;;4897966;29;20400;-64
2023/05/15 01:44:04;;;;;;;;;;;11.40;99.90;;;;;;4898561;29;20462;-64
2023/05/15 01:46:30;;;;;;;;;;;11.40;99.90;;;;;;4898344;29;20574;-64
2023/05/15 01:48:56;;;;;;;;;;;11.40;99.90;;;;;;4899124;29;19931;-65
2023/05/15 01:51:23;;;;;;;;;;;11.30;99.90;;;;;;4899145;29;19931;-64
2023/05/15 01:53:50;;;;;;;;;;;11.30;99.90;;;;;;4898295;29;20410;-65
2023/05/15 01:56:16;;;;;;;;;;;11.30;99.90;;;;;;4912602;29;20400;-65
2023/05/15 01:58:42;;;;;;;;;;;11.40;99.90;;;;;;4898419;29;19928;-63
2023/05/15 02:01:09;;;;;;;;;;;11.40;99.90;;;;;;4899280;29;19934;-63
2023/05/15 02:03:35;;;;;;;;;;;11.40;99.90;;;;;;4897957;29;19934;-64
2023/05/15 02:06:02;;;;;;;;;;;11.40;99.90;;;;;;4898056;29;19928;-64
2023/05/15 02:08:28;;;;;;;;;;;11.40;99.90;;;;;;4898773;29;19978;-64
2023/05/15 02:10:55;;;;;;;;;;;11.40;99.90;;;;;;4899203;29;20348;-64
2023/05/15 02:13:21;;;;;;;;;;;11.40;99.90;;;;;;4898762;29;19928;-64
2023/05/15 02:15:46;;;;;;;;;;;11.30;99.90;;;;;;4913874;29;19928;-64
2023/05/15 02:18:12;;;;;;;;;;;11.30;99.90;;;;;;4913424;29;19959;-66
2023/05/15 02:20:38;;;;;;;;;;;11.30;99.90;;;;;;4897820;29;19935;-63
2023/05/15 02:23:03;;;;;;;;;;;11.30;99.90;;;;;;4898836;29;19979;-64
2023/05/15 02:25:36;;;;;;;;;;;11.30;99.90;;;;;;4898541;29;20018;-64
2023/05/15 02:28:05;;;;;;;;;;;11.30;99.90;;;;;;4898658;29;19934;-64
2023/05/15 02:30:39;;;;;;;;;;;11.20;99.90;;;;;;4896877;29;19970;-64
2023/05/15 02:33:05;;;;;;;;;;;11.20;99.90;;;;;;4913642;29;19993;-68
2023/05/15 02:35:47;;;;;;;;;;;11.10;99.90;;;;;;4898341;29;20052;-64
2023/05/15 02:38:17;;;;;;;;;;;11.10;99.90;;;;;;4898810;29;19936;-65
2023/05/15 02:40:44;;;;;;;;;;;11.10;99.90;;;;;;4897757;29;19938;-64
2023/05/15 02:43:10;;;;;;;;;;;11.00;99.90;;;;;;4898876;29;19927;-64
2023/05/15 02:45:36;;;;;;;;;;;11.00;99.90;;;;;;4898355;29;19931;-64
2023/05/15 02:48:02;;;;;;;;;;;11.00;99.90;;;;;;4898682;29;19928;-64
2023/05/15 02:50:28;;;;;;;;;;;11.00;99.90;;;;;;4881522;29;20263;-64
2023/05/15 02:53:00;;;;;;;;;;;11.00;99.90;;;;;;4897476;29;19979;-63
2023/05/15 02:55:26;;;;;;;;;;;10.90;99.90;;;;;;4896792;29;20016;-64
2023/05/15 02:57:51;;;;;;;;;;;10.90;99.90;;;;;;4897404;29;20322;-65
2023/05/15 03:00:17;;;;;;;;;;;10.90;99.90;;;;;;4898290;29;19934;-67
2023/05/15 03:02:43;;;;;;;;;;;10.80;99.90;;;;;;4897148;29;19931;-65
2023/05/15 03:05:09;;;;;;;;;;;10.70;99.90;;;;;;4913030;29;19971;-65
2023/05/15 03:07:34;;;;;;;;;;;10.60;99.90;;;;;;4897354;29;20254;-65
2023/05/15 03:10:00;;;;;;;;;;;10.50;99.90;;;;;;4896203;29;19927;-64
2023/05/15 03:12:25;;;;;;;;;;;10.50;99.90;;;;;;4897475;29;19934;-63
2023/05/15 03:14:51;;;;;;;;;;;10.50;99.90;;;;;;4912842;29;19979;-64
2023/05/15 03:17:16;;;;;;;;;;;10.50;99.90;;;;;;4896925;29;19971;-64
2023/05/15 03:19:42;;;;;;;;;;;10.50;99.90;;;;;;4912354;29;19939;-64
2023/05/15 03:22:07;;;;;;;;;;;10.40;99.90;;;;;;4897850;29;20018;-64
2023/05/15 03:24:33;;;;;;;;;;;10.30;99.90;;;;;;4897582;29;20351;-63
2023/05/15 03:26:58;;;;;;;;;;;10.30;99.90;;;;;;4898121;29;19934;-64
2023/05/15 03:29:24;;;;;;;;;;;10.30;99.90;;;;;;4897214;29;20007;-64
2023/05/15 03:31:50;;;;;;;;;;;10.30;99.90;;;;;;4897647;29;19927;-64
2023/05/15 03:34:15;;;;;;;;;;;10.20;99.90;;;;;;4912253;29;20392;-64
2023/05/15 03:36:41;;;;;;;;;;;10.20;99.90;;;;;;4896436;29;19927;-64
2023/05/15 03:39:06;;;;;;;;;;;10.20;99.90;;;;;;4896694;29;19935;-64
2023/05/15 03:41:32;;;;;;;;;;;10.20;99.90;;;;;;4896298;29;20394;-64
2023/05/15 03:43:57;;;;;;;;;;;10.20;99.90;;;;;;4880885;29;20022;-64
2023/05/15 03:46:23;;;;;;;;;;;10.20;99.90;;;;;;4897279;29;19928;-66
2023/05/15 03:48:48;;;;;;;;;;;10.20;99.90;;;;;;4897324;29;19993;-64
2023/05/15 03:51:14;;;;;;;;;;;10.30;99.90;;;;;;4896299;29;19938;-64
2023/05/15 03:53:40;;;;;;;;;;;10.30;99.90;;;;;;4895690;29;19934;-64
2023/05/15 03:56:05;;;;;;;;;;;10.30;99.90;;;;;;4895884;29;20390;-64
2023/05/15 03:58:31;;;;;;;;;;;10.30;99.90;;;;;;4896941;29;20366;-64
2023/05/15 04:00:57;;;;;;;;;;;10.30;99.90;;;;;;4911792;29;19979;-64
2023/05/15 04:03:22;;;;;;;;;;;10.40;99.90;;;;;;4897140;29;19932;-63
2023/05/15 04:05:48;;;;;;;;;;;10.40;99.90;;;;;;4895585;29;19975;-64
2023/05/15 04:08:14;;;;;;;;;;;10.40;99.90;;;;;;4897131;29;20065;-63
2023/05/15 04:10:40;;;;;;;;;;;10.40;99.90;;;;;;4896456;29;20019;-64
2023/05/15 04:13:06;;;;;;;;;;;10.50;99.90;;;;;;4897221;29;19927;-64
2023/05/15 04:15:31;;;;;;;;;;;10.50;99.90;;;;;;4896842;29;19927;-64
2023/05/15 04:17:57;;;;;;;;;;;10.50;99.90;;;;;;4911685;29;20014;-64
2023/05/15 04:20:23;;;;;;;;;;;10.60;99.90;;;;;;4895866;29;19931;-64
2023/05/15 04:22:49;;;;;;;;;;;10.60;99.90;;;;;;4896578;29;19924;-65
2023/05/15 04:25:15;;;;;;;;;;;10.60;99.90;;;;;;4896939;29;19931;-65
2023/05/15 04:27:40;;;;;;;;;;;10.60;99.90;;;;;;4895384;29;19931;-64
2023/05/15 04:30:06;;;;;;;;;;;10.60;99.90;;;;;;4911280;29;19978;-65
2023/05/15 04:32:35;;;;;;;;;;;10.70;99.90;;;;;;4896232;29;19935;-64
2023/05/15 04:35:01;;;;;;;;;;;10.70;99.90;;;;;;4896734;29;19974;-64
2023/05/15 04:37:27;;;;;;;;;;;10.70;99.90;;;;;;4896695;29;20424;-64
2023/05/15 04:39:52;;;;;;;;;;;10.80;99.90;;;;;;4896422;29;19931;-64
2023/05/15 04:42:18;;;;;;;;;;;10.80;99.90;;;;;;4911289;29;20382;-64
2023/05/15 04:44:43;;;;;;;;;;;10.80;99.90;;;;;;4895995;29;19928;-64
2023/05/15 04:47:10;;;;;;;;;;;10.80;99.90;;;;;;4896843;29;19928;-64
2023/05/15 04:49:36;;;;;;;;;;;10.90;99.90;;;;;;4895295;29;20310;-64
2023/05/15 04:52:01;;;;;;;;;;;10.90;99.90;;;;;;4911472;29;19928;-64
2023/05/15 04:54:27;;;;;;;;;;;11.10;99.90;;;;;;4896764;29;19927;-64
2023/05/15 04:56:53;;;;;;;;;;;11.50;99.90;;;;;;4895227;29;19927;-64
2023/05/15 04:59:18;;;;;;;;;;;12.00;99.90;;;;;;4911359;29;20026;-64
2023/05/15 05:01:44;;;;;;;;;;;12.50;99.90;;;;;;4910738;29;19927;-64
2023/05/15 05:04:09;;;;;;;;;;;12.70;99.90;;;;;;4880104;29;19932;-64
2023/05/15 05:06:35;;;;;;;;;;;12.80;99.90;;;;;;4896064;29;19927;-65
2023/05/15 05:09:01;;;;;;;;;;;12.70;99.90;;;;;;4895065;29;20022;-65
2023/05/15 05:11:26;;;;;;;;;;;12.60;99.90;;;;;;4896697;29;19928;-64
2023/05/15 05:13:52;;;;;;;;;;;12.50;99.90;;;;;;4910841;29;20014;-65
2023/05/15 05:16:17;;;;;;;;;;;12.40;99.90;;;;;;4896550;29;20374;-64
2023/05/15 05:18:43;;;;;;;;;;;12.40;99.90;;;;;;4896283;29;19935;-64
2023/05/15 05:21:09;;;;;;;;;;;12.40;99.90;;;;;;4896487;29;19927;-65
2023/05/15 05:23:35;;;;;;;;;;;12.80;99.90;;;;;;4895666;29;20270;-67
2023/05/15 05:26:00;;;;;;;;;;;13.40;99.90;;;;;;4879708;29;19933;-64
2023/05/15 05:28:26;;;;;;;;;;;13.60;99.90;;;;;;4896639;29;19934;-65
2023/05/15 05:30:51;;;;;;;;;;;13.50;99.90;;;;;;4878884;29;19934;-64
2023/05/15 05:33:17;;;;;;;;;;;13.30;99.90;;;;;;4898961;29;19994;-64
2023/05/15 05:35:43;;;;;;;;;;;13.10;99.90;;;;;;4899522;29;19931;-64
2023/05/15 05:38:08;;;;;;;;;;;12.90;99.90;;;;;;4899765;29;19927;-64
2023/05/15 05:40:34;;;;;;;;;;;12.80;99.90;;;;;;4899814;29;19927;-64
2023/05/15 05:43:00;;;;;;;;;;;12.70;99.90;;;;;;4882486;29;19927;-64
2023/05/15 05:45:25;;;;;;;;;;;12.60;99.90;;;;;;4914566;29;20027;-65
2023/05/15 05:47:51;;;;;;;;;;;12.50;99.90;;;;;;4899202;29;20030;-65
2023/05/15 05:50:17;;;;;;;;;;;12.50;99.90;;;;;;4898324;29;20018;-65
2023/05/15 05:52:42;;;;;;;;;;;12.50;99.90;;;;;;4913684;29;19932;-65
2023/05/15 05:55:08;;;;;;;;;;;12.50;99.90;;;;;;4899644;29;20349;-65
2023/05/15 05:57:34;;;;;;;;;;;12.60;99.90;;;;;;4899417;29;19976;-65
2023/05/15 05:59:59;;;;;;;;;;;12.70;99.90;;;;;;4898964;29;19938;-65
2023/05/15 06:02:25;;;;;;;;;;;12.60;99.90;;;;;;4899151;29;19928;-65
2023/05/15 06:04:50;;;;;;;;;;;12.60;99.90;;;;;;4897863;29;19935;-65
2023/05/15 06:07:16;;;;;;;;;;;12.70;99.90;;;;;;4898239;29;19975;-65
2023/05/15 06:09:42;;;;;;;;;;;12.80;99.90;;;;;;4913054;29;20419;-66
2023/05/15 06:12:08;;;;;;;;;;;13.20;99.90;;;;;;4898732;29;19928;-63
2023/05/15 06:14:33;;;;;;;;;;;13.40;99.90;;;;;;4899051;29;19928;-64
2023/05/15 06:17:00;;;;;;;;;;;13.80;99.90;;;;;;4897632;29;20055;-65
2023/05/15 06:19:25;;;;;;;;;;;14.10;99.90;;;;;;4898779;29;20274;-65
2023/05/15 06:21:51;;;;;;;;;;;14.80;99.90;;;;;;4881989;29;19935;-65
2023/05/15 06:24:17;;;;;;;;;;;15.10;99.90;;;;;;4897667;29;19934;-65
2023/05/15 06:26:43;;;;;;;;;;;14.80;99.90;;;;;;4898791;29;20382;-68
2023/05/15 06:29:09;;;;;;;;;;;14.60;99.90;;;;;;4898268;29;19934;-65
2023/05/15 06:31:34;;;;;;;;;;;14.60;99.90;;;;;;4913515;29;20368;-65
2023/05/15 06:34:00;;;;;;;;;;;14.80;99.90;;;;;;4881767;29;19934;-65
2023/05/15 06:36:25;;;;;;;;;;;15.00;99.90;;;;;;4897589;29;19951;-64
2023/05/15 06:38:51;;;;;;;;;;;15.90;99.90;;;;;;4898451;29;19974;-64
2023/05/15 06:41:17;;;;;;;;;;;16.50;99.90;;;;;;4897456;29;19927;-64
2023/05/15 06:43:42;;;;;;;;;;;16.60;99.90;;;;;;4897392;29;19987;-64
2023/05/15 06:46:08;;;;;;;;;;;16.90;99.90;;;;;;4897115;29;20011;-64
2023/05/15 06:48:34;;;;;;;;;;;17.40;99.90;;;;;;4897306;29;20026;-65
2023/05/15 06:51:00;;;;;;;;;;;17.50;99.90;;;;;;4881685;29;19927;-64
2023/05/15 06:53:26;;;;;;;;;;;17.50;99.90;;;;;;4895457;29;20453;-65
2023/05/15 06:55:51;;;;;;;;;;;17.10;99.90;;;;;;4876982;29;19928;-67
2023/05/15 06:58:17;;;;;;;;;;;16.60;99.90;;;;;;4897440;29;19928;-64
2023/05/15 07:00:43;;;;;;;;;;;16.00;99.90;;;;;;4897795;29;19954;-65
2023/05/15 07:03:08;;;;;;;;;;;15.60;99.90;;;;;;4895935;29;19931;-64
2023/05/15 07:05:34;;;;;;;;;;;15.40;99.90;;;;;;4865057;29;20010;-64
2023/05/15 07:07:59;;;;;;;;;;;15.20;99.90;;;;;;4892250;29;19927;-64
2023/05/15 07:10:25;;;;;;;;;;;15.00;99.90;;;;;;4911923;29;19934;-64
2023/05/15 07:12:51;;;;;;;;;;;15.10;99.90;;;;;;4896057;29;19927;-63
2023/05/15 07:15:16;;;;;;;;;;;15.30;99.90;;;;;;4897903;29;19984;-64
2023/05/15 07:17:42;;;;;;;;;;;16.00;99.90;;;;;;4896567;29;19938;-64
2023/05/15 07:20:08;;;;;;;;;;;17.10;99.90;;;;;;4896586;29;20230;-66
2023/05/15 07:22:33;;;;;;;;;;;18.20;99.90;;;;;;4912392;29;19934;-66
2023/05/15 07:24:59;;;;;;;;;;;19.10;99.90;;;;;;4912327;29;19928;-65
2023/05/15 07:27:25;;;;;;;;;;;19.40;99.90;;;;;;4896991;29;19928;-67
2023/05/15 07:29:51;;;;;;;;;;;19.60;99.90;;;;;;4895944;29;19927;-66
2023/05/15 07:32:17;;;;;;;;;;;20.10;99.90;;;;;;4897664;29;19931;-66
2023/05/15 07:34:43;;;;;;;;;;;20.40;99.90;;;;;;4897515;29;19999;-67
2023/05/15 07:37:08;;;;;;;;;;;20.50;99.90;;;;;;4896188;29;19927;-66
2023/05/15 07:39:34;;;;;;;;;;;20.70;99.90;;;;;;4897539;29;19931;-66
2023/05/15 07:42:00;;;;;;;;;;;21.00;99.90;;;;;;4897304;29;20015;-66
2023/05/15 07:44:25;;;;;;;;;;;21.00;99.90;;;;;;4896491;29;19927;-64
2023/05/15 07:46:51;;;;;;;;;;;21.00;99.90;;;;;;4912196;29;20334;-64
2023/05/15 07:49:17;;;;;;;;;;;20.70;99.90;;;;;;4897057;29;20366;-64
2023/05/15 07:51:42;;;;;;;;;;;20.80;99.90;;;;;;4911989;29;19931;-64
2023/05/15 07:54:08;;;;;;;;;;;21.20;99.90;;;;;;4896086;29;19974;-65
2023/05/15 07:56:33;;;;;;;;;;;21.10;99.90;;;;;;4895221;29;19927;-64
2023/05/15 07:58:59;;;;;;;;;;;21.50;99.90;;;;;;4895993;29;19935;-64
2023/05/15 08:01:24;;;;;;;;;;;21.70;99.90;;;;;;4896581;29;20370;-65
2023/05/15 08:03:50;;;;;;;;;;;21.90;99.90;;;;;;4896935;29;20018;-65
2023/05/15 08:06:15;;;;;;;;;;;21.90;99.90;;;;;;4895613;29;20503;-65
2023/05/15 08:08:41;;;;;;;;;;;21.80;99.90;;;;;;4896045;29;19927;-64
2023/05/15 08:11:07;;;;;;;;;;;21.80;99.90;;;;;;4891422;29;20499;-65
2023/05/15 08:13:32;;;;;;;;;;;22.00;99.90;;;;;;4896922;29;19996;-66
2023/05/15 08:15:58;;;;;;;;;;;22.30;99.70;;;;;;4895059;29;19927;-66
2023/05/15 08:18:23;;;;;;;;;;;22.60;99.60;;;;;;4891752;29;20026;-67
2023/05/15 08:20:49;;;;;;;;;;;23.10;99.60;;;;;;4894475;29;19934;-63
2023/05/15 08:23:14;;;;;;;;;;;23.00;98.50;;;;;;4896054;29;19927;-66
2023/05/15 08:25:40;;;;;;;;;;;22.70;99.00;;;;;;4895635;29;20417;-64
2023/05/15 08:28:06;;;;;;;;;;;22.40;98.90;;;;;;4911171;29;19928;-66
2023/05/15 08:30:31;;;;;;;;;;;22.30;99.10;;;;;;4896985;29;19978;-66
2023/05/15 08:32:57;;;;;;;;;;;22.30;99.40;;;;;;4896611;29;19990;-67
2023/05/15 08:35:22;;;;;;;;;;;22.30;98.90;;;;;;4896741;29;19931;-64
2023/05/15 08:37:48;;;;;;;;;;;22.50;99.30;;;;;;4911750;29;20456;-66
2023/05/15 08:40:13;;;;;;;;;;;22.70;98.50;;;;;;4895638;29;19931;-66
2023/05/15 08:42:43;;;;;;;;;;;23.00;98.60;;;;;;4895848;29;19991;-67
2023/05/15 08:45:09;;;;;;;;;;;23.10;97.60;;;;;;4911388;29;19935;-67
2023/05/15 08:47:37;;;;;;;;;;;22.90;98.60;;;;;;4896755;29;19927;-64
2023/05/15 08:50:09;;;;;;;;;;;22.60;98.30;;;;;;4879770;29;19934;-65
2023/05/15 08:52:35;;;;;;;;;;;22.10;98.80;;;;;;4896051;29;19927;-66
2023/05/15 08:55:01;;;;;;;;;;;22.30;98.90;;;;;;4911467;29;19979;-66
2023/05/15 08:57:27;;;;;;;;;;;22.70;98.70;;;;;;4895786;29;19928;-66
2023/05/15 08:59:53;;;;;;;;;;;23.00;98.10;;;;;;4895788;29;20004;-66
2023/05/15 09:02:19;;;;;;;;;;;23.20;97.50;;;;;;4896928;29;19927;-66
2023/05/15 09:04:44;;;;;;;;;;;23.40;97.60;;;;;;4896769;29;19983;-65
2023/05/15 09:07:10;;;;;;;;;;;23.70;97.50;;;;;;4897071;29;19978;-66
2023/05/15 09:09:36;;;;;;;;;;;23.90;97.40;;;;;;4883682;29;19931;-65
2023/05/15 09:12:02;;;;;;;;;;;24.10;96.70;;;;;;4900240;29;19931;-68
2023/05/15 09:14:28;;;;;;;;;;;24.00;96.80;;;;;;4899547;29;19927;-64
2023/05/15 09:16:54;;;;;;;;;;;23.70;96.50;;;;;;4899903;29;20297;-65
2023/05/15 09:19:21;;;;;;;;;;;23.80;96.80;;;;;;4899904;29;19974;-66
2023/05/15 09:21:47;;;;;;;;;;;24.10;96.80;;;;;;4900423;29;19928;-66
2023/05/15 09:24:20;;;;;;;;;;;24.20;96.10;;;;;;4900132;29;19955;-66
2023/05/15 09:26:46;;;;;;;;;;;24.20;96.20;;;;;;4899157;29;19927;-66
2023/05/15 09:29:14;;;;;;;;;;;23.80;96.90;;;;;;4914183;29;19934;-66
2023/05/15 09:31:40;;;;;;;;;;;23.60;96.80;;;;;;4898380;29;19928;-65
2023/05/15 09:34:08;;;;;;;;;;;23.40;96.90;;;;;;4899293;29;19927;-71
2023/05/15 09:36:37;;;;;;;;;;;23.70;96.20;;;;;;4899844;29;19927;-69
2023/05/15 09:39:03;;;;;;;;;;;23.90;96.60;;;;;;4898831;29;19931;-66
2023/05/15 09:41:28;;;;;;;;;;;24.20;96.20;;;;;;4913892;29;19935;-69
2023/05/15 09:43:55;;;;;;;;;;;24.30;96.30;;;;;;4899845;29;19927;-69
2023/05/15 09:46:21;;;;;;;;;;;24.30;96.20;;;;;;4898354;29;19934;-68
2023/05/15 09:48:47;;;;;;;;;;;23.70;96.40;;;;;;4899711;29;20022;-68
2023/05/15 09:51:17;;;;;;;;;;;23.20;97.20;;;;;;4899142;29;20018;-68
2023/05/15 09:53:47;;;;;;;;;;;22.90;96.80;;;;;;4899187;29;19981;-69
2023/05/15 09:56:12;;;;;;;;;;;22.70;96.90;;;;;;4898251;29;19982;-69
2023/05/15 09:58:50;;;;;;;;;;;22.70;97.20;;;;;;4914144;29;19974;-69
2023/05/15 10:01:18;;;;;;;;;;;22.50;97.30;;;;;;4897794;29;19928;-67
2023/05/15 10:03:44;;;;;;;;;;;22.40;97.70;;;;;;4899283;29;20033;-68
2023/05/15 10:06:16;;;;;;;;;;;22.50;97.50;;;;;;4897713;29;20027;-69
2023/05/15 10:08:49;;;;;;;;;;;22.60;97.80;;;;;;4898349;29;19937;-67
2023/05/15 10:11:15;;;;;;;;;;;22.30;98.00;;;;;;4898917;29;20312;-68
2023/05/15 10:13:40;;;;;;;;;;;22.40;97.40;;;;;;4899399;29;19927;-68
2023/05/15 10:16:06;;;;;;;;;;;22.40;96.80;;;;;;4899344;29;19934;-68
2023/05/15 10:18:32;;;;;;;;;;;22.00;97.50;;;;;;4897408;29;19938;-69
2023/05/15 10:21:02;;;;;;;;;;;21.70;98.20;;;;;;4899475;29;19986;-67
2023/05/15 10:23:29;;;;;;;;;;;21.60;98.00;;;;;;4897806;29;20334;-67
2023/05/15 10:25:59;;;;;;;;;;;21.50;97.70;;;;;;4898155;29;19928;-68
2023/05/15 10:28:25;;;;;;;;;;;21.40;98.40;;;;;;4897649;29;20370;-68
2023/05/15 10:30:52;;;;;;;;;;;21.00;98.70;;;;;;4898993;29;20270;-69
2023/05/15 10:33:18;;;;;;;;;;;21.00;99.00;;;;;;4898661;29;19927;-70
2023/05/15 10:35:44;;;;;;;;;;;21.30;98.60;;;;;;4898443;29;19928;-69
2023/05/15 10:38:10;;;;;;;;;;;21.40;99.10;;;;;;4898599;29;19935;-69
2023/05/15 10:40:36;;;;;;;;;;;21.40;98.70;;;;;;4913361;29;19927;-69
2023/05/15 10:43:02;;;;;;;;;;;21.10;98.50;;;;;;4898789;29;19927;-68
2023/05/15 10:45:28;;;;;;;;;;;20.80;99.60;;;;;;4911963;29;19930;-68
2023/05/15 10:47:54;;;;;;;;;;;20.90;99.20;;;;;;4894547;29;20446;-67
2023/05/15 10:50:20;;;;;;;;;;;20.90;99.40;;;;;;4896186;29;20012;-70
2023/05/15 10:52:49;;;;;;;;;;;20.80;99.50;;;;;;4897395;29;20018;-68
2023/05/15 10:55:15;;;;;;;;;;;20.60;99.80;;;;;;4897738;29;19928;-71
2023/05/15 10:57:41;;;;;;;;;;;20.60;99.90;;;;;;4912373;29;20456;-68
2023/05/15 11:00:22;;;;;;;;;;;20.80;99.90;;;;;;4897309;29;19971;-68
2023/05/15 11:02:48;;;;;;;;;;;21.00;99.70;;;;;;4897985;29;20014;-67
2023/05/15 11:05:14;;;;;;;;;;;20.90;99.90;;;;;;4911990;29;20029;-68
2023/05/15 11:07:39;;;;;;;;;;;20.90;99.90;;;;;;4897877;29;19950;-67
2023/05/15 11:10:35;;;;;;;;;;;20.90;99.30;;;;;;4897751;29;19927;-68
2023/05/15 11:13:01;;;;;;;;;;;20.60;99.80;;;;;;4898058;29;20301;-68
2023/05/15 11:15:39;;;;;;;;;;;20.40;99.70;;;;;;4897422;29;19933;-69
2023/05/15 11:18:05;;;;;;;;;;;20.50;99.90;;;;;;4896685;29;19928;-69
2023/05/15 11:20:41;;;;;;;;;;;20.50;99.90;;;;;;4912236;29;19927;-69
2023/05/15 11:23:07;;;;;;;;;;;20.40;99.90;;;;;;4897771;29;20005;-69
2023/05/15 11:25:33;;;;;;;;;;;20.40;99.90;;;;;;4897131;29;19935;-69
2023/05/15 11:27:59;;;;;;;;;;;20.30;99.90;;;;;;4897598;29;19982;-69
2023/05/15 11:30:42;;;;;;;;;;;20.20;99.90;;;;;;4896695;29;20354;-70
2023/05/15 11:33:10;;;;;;;;;;;20.00;99.90;;;;;;4897614;29;19934;-67
2023/05/15 11:35:42;;;;;;;;;;;20.00;99.90;;;;;;4897421;29;19927;-67
2023/05/15 11:38:14;;;;;;;;;;;20.00;99.90;;;;;;4897650;29;20030;-67
2023/05/15 11:40:43;;;;;;;;;;;19.90;99.90;;;;;;4896302;29;19927;-70
2023/05/15 11:43:14;;;;;;;;;;;19.90;99.90;;;;;;4896277;29;20030;-67
2023/05/15 11:45:40;;;;;;;;;;;20.10;99.90;;;;;;4912156;29;19954;-68
2023/05/15 11:48:07;;;;;;;;;;;20.00;99.90;;;;;;4897489;29;19927;-67
2023/05/15 11:50:33;;;;;;;;;;;20.00;99.90;;;;;;4895220;29;19937;-68
2023/05/15 11:53:06;;;;;;;;;;;20.00;99.90;;;;;;4880690;29;19991;-66
2023/05/15 11:55:32;;;;;;;;;;;20.10;99.90;;;;;;4880708;29;19936;-68
2023/05/15 11:57:59;;;;;;;;;;;20.10;99.90;;;;;;4895651;29;20278;-67
2023/05/15 12:00:24;;;;;;;;;;;19.90;99.90;;;;;;4895604;29;20352;-67
2023/05/15 12:02:50;;;;;;;;;;;20.00;99.90;;;;;;4896302;29;19955;-68
2023/05/15 12:05:16;;;;;;;;;;;20.00;99.90;;;;;;4911056;29;19962;-68
2023/05/15 12:07:42;;;;;;;;;;;20.10;99.90;;;;;;4896009;29;19927;-67
2023/05/15 12:10:11;;;;;;;;;;;20.10;99.90;;;;;;4895501;29;19931;-68
2023/05/15 12:12:43;;;;;;;;;;;20.30;99.90;;;;;;4896793;29;19998;-68
2023/05/15 12:15:10;;;;;;;;;;;20.10;99.90;;;;;;4895233;29;20374;-69
2023/05/15 12:17:39;;;;;;;;;;;19.90;99.90;;;;;;4896872;29;20389;-68
2023/05/15 12:20:07;;;;;;;;;;;19.90;99.90;;;;;;4880563;29;19934;-68
2023/05/15 12:22:40;;;;;;;;;;;19.70;99.90;;;;;;4896995;29;20018;-68
2023/05/15 12:25:06;;;;;;;;;;;19.30;99.90;;;;;;4895115;29;20397;-68
2023/05/15 12:27:32;;;;;;;;;;;19.30;99.90;;;;;;4896284;29;19939;-68
2023/05/15 12:29:58;;;;;;;;;;;19.20;99.90;;;;;;4894043;29;20156;-67
2023/05/15 12:32:25;;;;;;;;;;;19.10;99.90;;;;;;4895516;29;20063;-68
2023/05/15 12:34:50;;;;;;;;;;;19.20;99.90;;;;;;4894358;29;19924;-68
2023/05/15 12:37:19;;;;;;;;;;;19.20;99.90;;;;;;4895005;29;19934;-69
2023/05/15 12:39:55;;;;;;;;;;;19.40;99.90;;;;;;4896015;29;20146;-71
2023/05/15 12:42:21;;;;;;;;;;;19.60;99.90;;;;;;4896462;29;19927;-69
2023/05/15 12:44:51;;;;;;;;;;;19.60;99.90;;;;;;4898929;29;19927;-68
2023/05/15 12:47:20;;;;;;;;;;;19.40;99.90;;;;;;4900591;29;19935;-67
2023/05/15 12:49:46;;;;;;;;;;;19.50;99.90;;;;;;4899615;29;19928;-67
2023/05/15 12:52:13;;;;;;;;;;;19.60;99.90;;;;;;4900180;29;20314;-67
2023/05/15 12:54:42;;;;;;;;;;;19.50;99.90;;;;;;4897984;29;19927;-68
2023/05/15 12:57:08;;;;;;;;;;;19.40;99.90;;;;;;4898158;29;19927;-68
2023/05/15 12:59:34;;;;;;;;;;;19.30;99.90;;;;;;4912444;29;20132;-68
2023/05/15 13:02:00;;;;;;;;;;;19.30;99.90;;;;;;4899033;29;19975;-69
2023/05/15 13:04:26;;;;;;;;;;;19.40;99.90;;;;;;4912061;29;19928;-68
2023/05/15 13:06:51;;;;;;;;;;;19.20;99.90;;;;;;4913923;29;19995;-69
2023/05/15 13:09:25;;;;;;;;;;;19.10;99.90;;;;;;4897519;29;19935;-72
2023/05/15 13:11:53;;;;;;;;;;;19.10;99.90;;;;;;4913950;29;19974;-70
2023/05/15 13:14:19;;;;;;;;;;;19.20;99.90;;;;;;4883713;29;19928;-72
2023/05/15 13:16:45;;;;;;;;;;;19.10;99.90;;;;;;4883154;29;19935;-71
2023/05/15 13:19:11;;;;;;;;;;;18.90;99.90;;;;;;4915071;29;19927;-68
2023/05/15 13:21:37;;;;;;;;;;;18.60;99.90;;;;;;4900048;29;19927;-69
2023/05/15 13:24:02;;;;;;;;;;;18.40;99.90;;;;;;4899321;29;20378;-70
2023/05/15 13:26:28;;;;;;;;;;;18.20;99.90;;;;;;4914615;29;20294;-69
2023/05/15 13:28:54;;;;;;;;;;;18.00;99.90;;;;;;4898516;29;20410;-69
2023/05/15 13:31:19;;;;;;;;;;;18.10;99.90;;;;;;4899199;29;19927;-68
2023/05/15 13:33:45;;;;;;;;;;;17.90;99.90;;;;;;4883293;29;20255;-69
2023/05/15 13:36:11;;;;;;;;;;;17.90;99.90;;;;;;4898742;29;19927;-69
2023/05/15 13:38:36;;;;;;;;;;;17.90;99.90;;;;;;4914364;29;20420;-68
2023/05/15 13:41:05;;;;;;;;;;;18.00;99.90;;;;;;4899084;29;19938;-68
2023/05/15 13:43:30;;;;;;;;;;;18.10;99.90;;;;;;4882896;29;20433;-71
2023/05/15 13:45:56;;;;;;;;;;;18.20;99.90;;;;;;4896503;29;19983;-67
2023/05/15 13:48:21;;;;;;;;;;;18.10;99.90;;;;;;4914122;29;19954;-68
2023/05/15 13:50:47;;;;;;;;;;;18.10;99.90;;;;;;4899437;29;19931;-68
2023/05/15 13:53:15;;;;;;;;;;;18.30;99.90;;;;;;4898098;29;20366;-68
2023/05/15 13:55:42;;;;;;;;;;;18.20;99.90;;;;;;4898609;29;19927;-69
2023/05/15 13:58:08;;;;;;;;;;;18.10;99.90;;;;;;4882772;29;20378;-67
2023/05/15 14:00:34;;;;;;;;;;;17.90;99.90;;;;;;4899067;29;19934;-68
2023/05/15 14:02:59;;;;;;;;;;;18.00;99.90;;;;;;4881458;29;20366;-69
2023/05/15 14:05:25;;;;;;;;;;;17.90;99.90;;;;;;4883004;29;19928;-69
2023/05/15 14:07:50;;;;;;;;;;;17.70;99.90;;;;;;4897291;29;20004;-68
2023/05/15 14:10:16;;;;;;;;;;;17.50;99.90;;;;;;4912286;29;19990;-68
2023/05/15 14:12:42;;;;;;;;;;;17.30;99.90;;;;;;4898873;29;19931;-68